sensor_id;sensor_type;location;lat;lon;timestamp;temperature;humidity
42085;DHT22;27746;52.228;20.890;2022-07-04T00:01:33;20.30;99.90
42085;DHT22;27746;52.228;20.890;2022-07-04T00:04:01;20.30;99.90
42085;DHT22;27746;52.228;20.890;2022-07-04T00:06:28;20.30;99.90
42085;DHT22;27746;52.228;20.890;2022-07-04T00:08:55;20.20;99.90
42085;DHT22;27746;52.228;20.890;2022-07-04T00:11:22;20.10;99.90
42085;DHT22;27746;52.228;20.890;2022-07-04T00:13:48;20.20;99.90
42085;DHT22;27746;52.228;20.890;2022-07-04T00:16:15;20.10;99.90
42085;DHT22;27746;52.228;20.890;2022-07-04T00:18:42;20.10;99.90
42085;DHT22;27746;52.228;20.890;2022-07-04T00:21:10;20.00;99.90
42085;DHT22;27746;52.228;20.890;2022-07-04T00:23:37;20.00;99.90
42085;DHT22;27746;52.228;20.890;2022-07-04T00:26:04;20.00;99.90
42085;DHT22;27746;52.228;20.890;2022-07-04T00:28:31;20.00;99.90
42085;DHT22;27746;52.228;20.890;2022-07-04T00:30:57;20.00;99.90
42085;DHT22;27746;52.228;20.890;2022-07-04T00:33:24;19.90;99.90
42085;DHT22;27746;52.228;20.890;2022-07-04T00:35:51;19.90;99.90
42085;DHT22;27746;52.228;20.890;2022-07-04T00:38:19;19.80;99.90
42085;DHT22;27746;52.228;20.890;2022-07-04T00:40:46;19.80;99.90
42085;DHT22;27746;52.228;20.890;2022-07-04T00:43:12;19.80;99.90
42085;DHT22;27746;52.228;20.890;2022-07-04T00:45:39;19.70;99.90
42085;DHT22;27746;52.228;20.890;2022-07-04T00:48:06;19.70;99.90
42085;DHT22;27746;52.228;20.890;2022-07-04T00:50:32;19.70;99.90
42085;DHT22;27746;52.228;20.890;2022-07-04T00:53:00;19.70;99.90
42085;DHT22;27746;52.228;20.890;2022-07-04T00:55:28;19.70;99.90
42085;DHT22;27746;52.228;20.890;2022-07-04T00:57:55;19.60;99.90
42085;DHT22;27746;52.228;20.890;2022-07-04T01:00:22;19.50;99.90
42085;DHT22;27746;52.228;20.890;2022-07-04T01:02:49;19.50;99.90
42085;DHT22;27746;52.228;20.890;2022-07-04T01:05:16;19.40;99.90
42085;DHT22;27746;52.228;20.890;2022-07-04T01:07:43;19.40;99.90
42085;DHT22;27746;52.228;20.890;2022-07-04T01:10:10;19.40;99.90
42085;DHT22;27746;52.228;20.890;2022-07-04T01:12:40;19.40;99.90
42085;DHT22;27746;52.228;20.890;2022-07-04T01:15:07;19.40;99.90
42085;DHT22;27746;52.228;20.890;2022-07-04T01:17:35;19.40;99.90
42085;DHT22;27746;52.228;20.890;2022-07-04T01:20:02;19.40;99.90
42085;DHT22;27746;52.228;20.890;2022-07-04T01:22:31;19.40;99.90
42085;DHT22;27746;52.228;20.890;2022-07-04T01:24:58;19.30;99.90
42085;DHT22;27746;52.228;20.890;2022-07-04T01:27:25;19.30;99.90
42085;DHT22;27746;52.228;20.890;2022-07-04T01:29:51;19.30;99.90
42085;DHT22;27746;52.228;20.890;2022-07-04T01:32:19;19.30;99.90
42085;DHT22;27746;52.228;20.890;2022-07-04T01:34:46;19.30;99.90
42085;DHT22;27746;52.228;20.890;2022-07-04T01:37:13;19.30;99.90
42085;DHT22;27746;52.228;20.890;2022-07-04T01:39:41;19.20;99.90
42085;DHT22;27746;52.228;20.890;2022-07-04T01:42:08;19.20;99.90
42085;DHT22;27746;52.228;20.890;2022-07-04T01:44:35;19.10;99.90
42085;DHT22;27746;52.228;20.890;2022-07-04T01:47:02;19.10;99.90
42085;DHT22;27746;52.228;20.890;2022-07-04T01:49:30;19.10;99.90
42085;DHT22;27746;52.228;20.890;2022-07-04T01:51:57;19.00;99.90
42085;DHT22;27746;52.228;20.890;2022-07-04T01:54:24;19.00;99.90
42085;DHT22;27746;52.228;20.890;2022-07-04T01:56:53;19.00;99.90
42085;DHT22;27746;52.228;20.890;2022-07-04T01:59:20;18.90;99.90
42085;DHT22;27746;52.228;20.890;2022-07-04T02:02:06;18.90;99.90
42085;DHT22;27746;52.228;20.890;2022-07-04T02:04:33;18.80;99.90
42085;DHT22;27746;52.228;20.890;2022-07-04T02:07:00;18.80;99.90
42085;DHT22;27746;52.228;20.890;2022-07-04T02:09:28;18.70;99.90
42085;DHT22;27746;52.228;20.890;2022-07-04T02:11:57;18.70;99.90
42085;DHT22;27746;52.228;20.890;2022-07-04T02:14:42;18.70;99.90
42085;DHT22;27746;52.228;20.890;2022-07-04T02:17:09;18.70;99.90
42085;DHT22;27746;52.228;20.890;2022-07-04T02:19:36;18.70;99.90
42085;DHT22;27746;52.228;20.890;2022-07-04T02:22:03;18.70;99.90
42085;DHT22;27746;52.228;20.890;2022-07-04T02:24:30;18.70;99.90
42085;DHT22;27746;52.228;20.890;2022-07-04T02:26:58;18.70;99.90
42085;DHT22;27746;52.228;20.890;2022-07-04T02:29:25;18.70;99.90
42085;DHT22;27746;52.228;20.890;2022-07-04T02:31:53;18.70;99.90
42085;DHT22;27746;52.228;20.890;2022-07-04T02:34:20;18.70;99.90
42085;DHT22;27746;52.228;20.890;2022-07-04T02:36:47;18.70;99.90
42085;DHT22;27746;52.228;20.890;2022-07-04T02:39:13;18.70;99.90
42085;DHT22;27746;52.228;20.890;2022-07-04T02:41:40;18.60;99.90
42085;DHT22;27746;52.228;20.890;2022-07-04T02:44:09;18.70;99.90
42085;DHT22;27746;52.228;20.890;2022-07-04T02:46:36;18.60;99.90
42085;DHT22;27746;52.228;20.890;2022-07-04T02:49:03;18.60;99.90
42085;DHT22;27746;52.228;20.890;2022-07-04T02:51:31;18.50;99.90
42085;DHT22;27746;52.228;20.890;2022-07-04T02:53:58;18.50;99.90
42085;DHT22;27746;52.228;20.890;2022-07-04T02:56:25;18.50;99.90
42085;DHT22;27746;52.228;20.890;2022-07-04T02:58:51;18.50;99.90
42085;DHT22;27746;52.228;20.890;2022-07-04T03:01:20;18.50;99.90
42085;DHT22;27746;52.228;20.890;2022-07-04T03:03:47;18.50;99.90
42085;DHT22;27746;52.228;20.890;2022-07-04T03:06:14;18.50;99.90
42085;DHT22;27746;52.228;20.890;2022-07-04T03:08:41;18.50;99.90
42085;DHT22;27746;52.228;20.890;2022-07-04T03:11:07;18.40;99.90
42085;DHT22;27746;52.228;20.890;2022-07-04T03:13:36;18.50;99.90
42085;DHT22;27746;52.228;20.890;2022-07-04T03:16:03;18.50;99.90
42085;DHT22;27746;52.228;20.890;2022-07-04T03:18:31;18.50;99.90
42085;DHT22;27746;52.228;20.890;2022-07-04T03:20:58;18.50;99.90
42085;DHT22;27746;52.228;20.890;2022-07-04T03:23:24;18.60;99.90
42085;DHT22;27746;52.228;20.890;2022-07-04T03:25:51;18.60;99.90
42085;DHT22;27746;52.228;20.890;2022-07-04T03:28:18;18.50;99.90
42085;DHT22;27746;52.228;20.890;2022-07-04T03:30:44;18.70;99.90
42085;DHT22;27746;52.228;20.890;2022-07-04T03:33:11;18.60;99.90
42085;DHT22;27746;52.228;20.890;2022-07-04T03:35:40;18.60;99.90
42085;DHT22;27746;52.228;20.890;2022-07-04T03:38:06;18.70;99.90
42085;DHT22;27746;52.228;20.890;2022-07-04T03:40:33;18.70;99.90
42085;DHT22;27746;52.228;20.890;2022-07-04T03:43:01;18.70;99.90
42085;DHT22;27746;52.228;20.890;2022-07-04T03:45:28;18.70;99.90
42085;DHT22;27746;52.228;20.890;2022-07-04T03:47:55;18.80;99.90
42085;DHT22;27746;52.228;20.890;2022-07-04T03:50:23;18.80;99.90
42085;DHT22;27746;52.228;20.890;2022-07-04T03:52:51;18.90;99.90
42085;DHT22;27746;52.228;20.890;2022-07-04T03:55:18;18.90;99.90
42085;DHT22;27746;52.228;20.890;2022-07-04T03:57:45;18.90;99.90
42085;DHT22;27746;52.228;20.890;2022-07-04T04:00:13;19.00;99.90
42085;DHT22;27746;52.228;20.890;2022-07-04T04:02:40;19.00;99.90
42085;DHT22;27746;52.228;20.890;2022-07-04T04:05:07;19.00;99.90
42085;DHT22;27746;52.228;20.890;2022-07-04T04:07:53;19.10;99.90
42085;DHT22;27746;52.228;20.890;2022-07-04T04:10:20;19.20;99.90
42085;DHT22;27746;52.228;20.890;2022-07-04T04:12:47;19.20;99.90
42085;DHT22;27746;52.228;20.890;2022-07-04T04:15:14;19.30;99.90
42085;DHT22;27746;52.228;20.890;2022-07-04T04:17:41;19.30;99.90
42085;DHT22;27746;52.228;20.890;2022-07-04T04:20:08;19.40;99.90
42085;DHT22;27746;52.228;20.890;2022-07-04T04:22:35;19.50;99.90
42085;DHT22;27746;52.228;20.890;2022-07-04T04:25:03;19.50;99.90
42085;DHT22;27746;52.228;20.890;2022-07-04T04:27:33;19.60;99.90
42085;DHT22;27746;52.228;20.890;2022-07-04T04:30:01;19.70;99.90
42085;DHT22;27746;52.228;20.890;2022-07-04T04:32:27;19.70;99.90
42085;DHT22;27746;52.228;20.890;2022-07-04T04:34:54;19.80;99.90
42085;DHT22;27746;52.228;20.890;2022-07-04T04:37:21;19.90;99.90
42085;DHT22;27746;52.228;20.890;2022-07-04T04:39:48;19.90;99.90
42085;DHT22;27746;52.228;20.890;2022-07-04T04:42:16;20.00;99.90
42085;DHT22;27746;52.228;20.890;2022-07-04T04:44:43;20.10;99.90
42085;DHT22;27746;52.228;20.890;2022-07-04T04:47:09;20.10;99.90
42085;DHT22;27746;52.228;20.890;2022-07-04T04:49:36;20.20;99.90
42085;DHT22;27746;52.228;20.890;2022-07-04T04:52:03;20.20;99.90
42085;DHT22;27746;52.228;20.890;2022-07-04T04:54:31;20.30;99.90
42085;DHT22;27746;52.228;20.890;2022-07-04T04:56:58;20.40;99.90
42085;DHT22;27746;52.228;20.890;2022-07-04T04:59:26;20.50;99.90
42085;DHT22;27746;52.228;20.890;2022-07-04T05:01:53;20.60;99.90
42085;DHT22;27746;52.228;20.890;2022-07-04T05:04:20;20.60;99.90
42085;DHT22;27746;52.228;20.890;2022-07-04T05:06:47;20.70;99.90
42085;DHT22;27746;52.228;20.890;2022-07-04T05:09:13;20.80;99.90
42085;DHT22;27746;52.228;20.890;2022-07-04T05:11:40;20.80;99.90
42085;DHT22;27746;52.228;20.890;2022-07-04T05:14:07;20.90;99.90
42085;DHT22;27746;52.228;20.890;2022-07-04T05:16:35;21.00;99.90
42085;DHT22;27746;52.228;20.890;2022-07-04T05:19:02;21.10;99.90
42085;DHT22;27746;52.228;20.890;2022-07-04T05:21:29;21.20;99.90
42085;DHT22;27746;52.228;20.890;2022-07-04T05:23:56;21.30;99.90
42085;DHT22;27746;52.228;20.890;2022-07-04T05:26:23;21.30;99.90
42085;DHT22;27746;52.228;20.890;2022-07-04T05:28:50;21.30;99.90
42085;DHT22;27746;52.228;20.890;2022-07-04T05:31:17;21.30;99.90
42085;DHT22;27746;52.228;20.890;2022-07-04T05:33:45;21.50;99.90
42085;DHT22;27746;52.228;20.890;2022-07-04T05:36:12;21.50;99.90
42085;DHT22;27746;52.228;20.890;2022-07-04T05:38:39;21.60;99.90
42085;DHT22;27746;52.228;20.890;2022-07-04T05:41:05;21.70;99.90
42085;DHT22;27746;52.228;20.890;2022-07-04T05:43:32;21.70;99.90
42085;DHT22;27746;52.228;20.890;2022-07-04T05:45:59;21.70;99.90
42085;DHT22;27746;52.228;20.890;2022-07-04T05:48:26;21.80;99.90
42085;DHT22;27746;52.228;20.890;2022-07-04T05:50:54;21.80;99.90
42085;DHT22;27746;52.228;20.890;2022-07-04T05:53:21;21.90;99.90
42085;DHT22;27746;52.228;20.890;2022-07-04T05:55:47;22.00;99.90
42085;DHT22;27746;52.228;20.890;2022-07-04T05:58:14;21.90;99.90
42085;DHT22;27746;52.228;20.890;2022-07-04T06:00:41;22.00;99.90
42085;DHT22;27746;52.228;20.890;2022-07-04T06:03:08;22.10;99.90
42085;DHT22;27746;52.228;20.890;2022-07-04T06:05:35;22.10;99.90
42085;DHT22;27746;52.228;20.890;2022-07-04T06:08:03;22.10;99.90
42085;DHT22;27746;52.228;20.890;2022-07-04T06:10:31;22.20;99.90
42085;DHT22;27746;52.228;20.890;2022-07-04T06:12:58;22.30;99.90
42085;DHT22;27746;52.228;20.890;2022-07-04T06:15:25;22.40;99.90
42085;DHT22;27746;52.228;20.890;2022-07-04T06:17:52;22.50;99.90
42085;DHT22;27746;52.228;20.890;2022-07-04T06:20:19;22.50;99.90
42085;DHT22;27746;52.228;20.890;2022-07-04T06:22:48;22.60;99.90
42085;DHT22;27746;52.228;20.890;2022-07-04T06:25:18;22.70;99.90
42085;DHT22;27746;52.228;20.890;2022-07-04T06:27:47;22.70;99.90
42085;DHT22;27746;52.228;20.890;2022-07-04T06:30:14;22.80;99.90
42085;DHT22;27746;52.228;20.890;2022-07-04T06:32:43;22.80;99.90
42085;DHT22;27746;52.228;20.890;2022-07-04T06:35:10;22.90;99.90
42085;DHT22;27746;52.228;20.890;2022-07-04T06:37:54;23.00;99.90
42085;DHT22;27746;52.228;20.890;2022-07-04T06:40:23;23.10;99.90
42085;DHT22;27746;52.228;20.890;2022-07-04T06:42:50;23.10;99.90
42085;DHT22;27746;52.228;20.890;2022-07-04T06:45:17;23.10;99.90
42085;DHT22;27746;52.228;20.890;2022-07-04T06:47:44;23.10;99.90
42085;DHT22;27746;52.228;20.890;2022-07-04T06:50:11;23.30;99.90
42085;DHT22;27746;52.228;20.890;2022-07-04T06:52:38;23.30;99.90
42085;DHT22;27746;52.228;20.890;2022-07-04T06:55:07;23.30;99.90
42085;DHT22;27746;52.228;20.890;2022-07-04T06:57:38;23.40;99.90
42085;DHT22;27746;52.228;20.890;2022-07-04T07:00:06;23.40;99.90
42085;DHT22;27746;52.228;20.890;2022-07-04T07:02:34;23.50;99.90
42085;DHT22;27746;52.228;20.890;2022-07-04T07:05:01;23.60;99.90
42085;DHT22;27746;52.228;20.890;2022-07-04T07:07:29;23.70;99.90
42085;DHT22;27746;52.228;20.890;2022-07-04T07:09:57;23.70;99.90
42085;DHT22;27746;52.228;20.890;2022-07-04T07:12:29;23.70;99.90
42085;DHT22;27746;52.228;20.890;2022-07-04T07:14:57;23.80;99.90
42085;DHT22;27746;52.228;20.890;2022-07-04T07:17:24;23.90;99.90
42085;DHT22;27746;52.228;20.890;2022-07-04T07:19:51;23.90;99.90
42085;DHT22;27746;52.228;20.890;2022-07-04T07:22:18;23.90;99.90
42085;DHT22;27746;52.228;20.890;2022-07-04T07:24:45;24.00;99.90
42085;DHT22;27746;52.228;20.890;2022-07-04T07:27:11;24.00;99.90
42085;DHT22;27746;52.228;20.890;2022-07-04T07:29:39;24.10;99.90
42085;DHT22;27746;52.228;20.890;2022-07-04T07:32:08;24.10;99.90
42085;DHT22;27746;52.228;20.890;2022-07-04T07:34:34;24.10;99.90
42085;DHT22;27746;52.228;20.890;2022-07-04T07:37:02;24.20;99.90
42085;DHT22;27746;52.228;20.890;2022-07-04T07:39:28;24.30;99.90
42085;DHT22;27746;52.228;20.890;2022-07-04T07:41:55;24.40;99.90
42085;DHT22;27746;52.228;20.890;2022-07-04T07:44:22;24.50;99.90
42085;DHT22;27746;52.228;20.890;2022-07-04T07:46:49;24.60;99.90
42085;DHT22;27746;52.228;20.890;2022-07-04T07:49:17;24.70;99.90
42085;DHT22;27746;52.228;20.890;2022-07-04T07:51:44;24.80;99.90
42085;DHT22;27746;52.228;20.890;2022-07-04T07:54:11;24.80;99.90
42085;DHT22;27746;52.228;20.890;2022-07-04T07:56:39;24.80;99.90
42085;DHT22;27746;52.228;20.890;2022-07-04T07:59:05;24.90;99.90
42085;DHT22;27746;52.228;20.890;2022-07-04T08:01:32;25.10;99.90
42085;DHT22;27746;52.228;20.890;2022-07-04T08:03:59;25.20;99.90
42085;DHT22;27746;52.228;20.890;2022-07-04T08:06:44;25.20;99.90
42085;DHT22;27746;52.228;20.890;2022-07-04T08:09:13;25.30;99.90
42085;DHT22;27746;52.228;20.890;2022-07-04T08:11:40;25.40;99.90
42085;DHT22;27746;52.228;20.890;2022-07-04T08:14:07;25.60;99.90
42085;DHT22;27746;52.228;20.890;2022-07-04T08:16:34;25.70;99.90
42085;DHT22;27746;52.228;20.890;2022-07-04T08:19:02;25.70;99.90
42085;DHT22;27746;52.228;20.890;2022-07-04T08:21:29;25.80;99.90
42085;DHT22;27746;52.228;20.890;2022-07-04T08:23:57;25.90;99.90
42085;DHT22;27746;52.228;20.890;2022-07-04T08:26:24;25.90;99.90
42085;DHT22;27746;52.228;20.890;2022-07-04T08:28:51;25.80;98.40
42085;DHT22;27746;52.228;20.890;2022-07-04T08:31:18;25.90;98.50
42085;DHT22;27746;52.228;20.890;2022-07-04T08:33:45;26.00;98.20
42085;DHT22;27746;52.228;20.890;2022-07-04T08:36:13;26.00;98.00
42085;DHT22;27746;52.228;20.890;2022-07-04T08:38:41;26.10;98.40
42085;DHT22;27746;52.228;20.890;2022-07-04T08:41:09;26.20;98.60
42085;DHT22;27746;52.228;20.890;2022-07-04T08:43:36;26.30;99.20
42085;DHT22;27746;52.228;20.890;2022-07-04T08:46:04;26.50;98.80
42085;DHT22;27746;52.228;20.890;2022-07-04T08:48:32;26.50;97.90
42085;DHT22;27746;52.228;20.890;2022-07-04T08:51:06;26.60;97.10
42085;DHT22;27746;52.228;20.890;2022-07-04T08:53:38;26.70;97.00
42085;DHT22;27746;52.228;20.890;2022-07-04T08:56:05;26.90;97.00
42085;DHT22;27746;52.228;20.890;2022-07-04T08:58:53;27.00;96.00
42085;DHT22;27746;52.228;20.890;2022-07-04T09:01:20;27.10;95.40
42085;DHT22;27746;52.228;20.890;2022-07-04T09:03:50;27.20;95.00
42085;DHT22;27746;52.228;20.890;2022-07-04T09:06:17;27.30;95.90
42085;DHT22;27746;52.228;20.890;2022-07-04T09:08:43;27.40;95.10
42085;DHT22;27746;52.228;20.890;2022-07-04T09:11:10;27.40;94.80
42085;DHT22;27746;52.228;20.890;2022-07-04T09:13:38;27.60;94.40
42085;DHT22;27746;52.228;20.890;2022-07-04T09:16:06;27.60;93.50
42085;DHT22;27746;52.228;20.890;2022-07-04T09:18:35;27.70;93.10
42085;DHT22;27746;52.228;20.890;2022-07-04T09:21:04;27.80;92.60
42085;DHT22;27746;52.228;20.890;2022-07-04T09:23:33;27.80;92.10
42085;DHT22;27746;52.228;20.890;2022-07-04T09:26:12;27.90;91.30
42085;DHT22;27746;52.228;20.890;2022-07-04T09:28:41;28.00;90.30
42085;DHT22;27746;52.228;20.890;2022-07-04T09:31:20;28.10;89.30
42085;DHT22;27746;52.228;20.890;2022-07-04T09:33:50;28.20;89.60
42085;DHT22;27746;52.228;20.890;2022-07-04T09:36:19;28.30;89.20
42085;DHT22;27746;52.228;20.890;2022-07-04T09:39:04;28.30;90.10
42085;DHT22;27746;52.228;20.890;2022-07-04T09:41:31;28.30;90.60
42085;DHT22;27746;52.228;20.890;2022-07-04T09:44:06;28.30;90.80
42085;DHT22;27746;52.228;20.890;2022-07-04T09:46:35;28.40;90.60
42085;DHT22;27746;52.228;20.890;2022-07-04T09:49:01;28.50;89.40
42085;DHT22;27746;52.228;20.890;2022-07-04T09:51:41;28.60;87.60
42085;DHT22;27746;52.228;20.890;2022-07-04T09:54:20;28.70;87.40
42085;DHT22;27746;52.228;20.890;2022-07-04T09:56:50;28.80;85.50
42085;DHT22;27746;52.228;20.890;2022-07-04T09:59:17;28.90;83.90
42085;DHT22;27746;52.228;20.890;2022-07-04T10:01:46;29.10;85.40
42085;DHT22;27746;52.228;20.890;2022-07-04T10:04:13;29.20;84.70
42085;DHT22;27746;52.228;20.890;2022-07-04T10:06:41;29.30;82.90
42085;DHT22;27746;52.228;20.890;2022-07-04T10:09:09;29.30;82.00
42085;DHT22;27746;52.228;20.890;2022-07-04T10:11:38;29.40;81.20
42085;DHT22;27746;52.228;20.890;2022-07-04T10:14:06;29.40;81.80
42085;DHT22;27746;52.228;20.890;2022-07-04T10:16:34;29.40;81.40
42085;DHT22;27746;52.228;20.890;2022-07-04T10:19:03;29.40;80.80
42085;DHT22;27746;52.228;20.890;2022-07-04T10:21:30;29.40;80.50
42085;DHT22;27746;52.228;20.890;2022-07-04T10:23:57;29.50;79.30
42085;DHT22;27746;52.228;20.890;2022-07-04T10:26:27;29.40;79.20
42085;DHT22;27746;52.228;20.890;2022-07-04T10:28:54;29.50;78.50
42085;DHT22;27746;52.228;20.890;2022-07-04T10:31:26;29.60;78.20
42085;DHT22;27746;52.228;20.890;2022-07-04T10:33:55;29.60;78.50
42085;DHT22;27746;52.228;20.890;2022-07-04T10:36:25;29.50;76.80
42085;DHT22;27746;52.228;20.890;2022-07-04T10:38:57;29.50;76.50
42085;DHT22;27746;52.228;20.890;2022-07-04T10:41:26;29.60;78.90
42085;DHT22;27746;52.228;20.890;2022-07-04T10:43:56;29.60;78.80
42085;DHT22;27746;52.228;20.890;2022-07-04T10:46:37;29.70;80.40
42085;DHT22;27746;52.228;20.890;2022-07-04T10:49:06;29.80;79.30
42085;DHT22;27746;52.228;20.890;2022-07-04T10:51:38;29.80;78.10
42085;DHT22;27746;52.228;20.890;2022-07-04T10:54:07;29.90;77.70
42085;DHT22;27746;52.228;20.890;2022-07-04T10:56:42;30.00;78.50
42085;DHT22;27746;52.228;20.890;2022-07-04T10:59:12;30.10;78.40
42085;DHT22;27746;52.228;20.890;2022-07-04T11:01:48;30.00;77.80
42085;DHT22;27746;52.228;20.890;2022-07-04T11:04:46;30.00;77.70
42085;DHT22;27746;52.228;20.890;2022-07-04T11:07:15;30.00;77.40
42085;DHT22;27746;52.228;20.890;2022-07-04T11:09:43;30.10;77.60
42085;DHT22;27746;52.228;20.890;2022-07-04T11:12:11;30.10;78.30
42085;DHT22;27746;52.228;20.890;2022-07-04T11:14:41;30.20;78.30
42085;DHT22;27746;52.228;20.890;2022-07-04T11:17:09;30.20;78.30
42085;DHT22;27746;52.228;20.890;2022-07-04T11:19:37;30.20;77.00
42085;DHT22;27746;52.228;20.890;2022-07-04T11:22:05;30.10;76.30
42085;DHT22;27746;52.228;20.890;2022-07-04T11:24:34;30.10;76.50
42085;DHT22;27746;52.228;20.890;2022-07-04T11:27:01;30.00;75.90
42085;DHT22;27746;52.228;20.890;2022-07-04T11:29:29;30.00;75.30
42085;DHT22;27746;52.228;20.890;2022-07-04T11:31:56;30.00;76.20
42085;DHT22;27746;52.228;20.890;2022-07-04T11:34:23;30.00;76.00
42085;DHT22;27746;52.228;20.890;2022-07-04T11:36:50;30.00;76.70
42085;DHT22;27746;52.228;20.890;2022-07-04T11:39:19;30.00;76.30
42085;DHT22;27746;52.228;20.890;2022-07-04T11:41:49;29.90;76.50
42085;DHT22;27746;52.228;20.890;2022-07-04T11:44:35;29.90;75.90
42085;DHT22;27746;52.228;20.890;2022-07-04T11:47:36;29.90;74.90
42085;DHT22;27746;52.228;20.890;2022-07-04T11:50:05;29.90;75.10
42085;DHT22;27746;52.228;20.890;2022-07-04T11:52:40;29.80;75.70
42085;DHT22;27746;52.228;20.890;2022-07-04T11:55:07;29.80;76.40
42085;DHT22;27746;52.228;20.890;2022-07-04T11:57:37;29.80;75.50
42085;DHT22;27746;52.228;20.890;2022-07-04T12:00:06;29.80;77.20
42085;DHT22;27746;52.228;20.890;2022-07-04T12:02:34;29.70;76.40
42085;DHT22;27746;52.228;20.890;2022-07-04T12:05:02;29.80;75.70
42085;DHT22;27746;52.228;20.890;2022-07-04T12:07:31;29.80;75.40
42085;DHT22;27746;52.228;20.890;2022-07-04T12:10:07;29.90;74.40
42085;DHT22;27746;52.228;20.890;2022-07-04T12:12:49;30.00;74.30
42085;DHT22;27746;52.228;20.890;2022-07-04T12:15:16;30.10;75.20
42085;DHT22;27746;52.228;20.890;2022-07-04T12:17:43;30.10;74.90
42085;DHT22;27746;52.228;20.890;2022-07-04T12:20:12;30.10;73.50
42085;DHT22;27746;52.228;20.890;2022-07-04T12:22:40;30.10;73.50
42085;DHT22;27746;52.228;20.890;2022-07-04T12:25:19;30.10;74.80
42085;DHT22;27746;52.228;20.890;2022-07-04T12:27:54;30.10;73.40
42085;DHT22;27746;52.228;20.890;2022-07-04T12:30:21;30.10;73.80
42085;DHT22;27746;52.228;20.890;2022-07-04T12:32:50;30.10;74.80
42085;DHT22;27746;52.228;20.890;2022-07-04T12:35:38;30.00;74.20
42085;DHT22;27746;52.228;20.890;2022-07-04T12:38:07;30.00;74.60
42085;DHT22;27746;52.228;20.890;2022-07-04T12:40:36;29.90;74.60
42085;DHT22;27746;52.228;20.890;2022-07-04T12:43:04;29.90;75.00
42085;DHT22;27746;52.228;20.890;2022-07-04T12:45:44;29.80;74.20
42085;DHT22;27746;52.228;20.890;2022-07-04T12:48:16;29.80;74.70
42085;DHT22;27746;52.228;20.890;2022-07-04T12:50:43;29.70;74.80
42085;DHT22;27746;52.228;20.890;2022-07-04T12:53:10;29.60;74.50
42085;DHT22;27746;52.228;20.890;2022-07-04T12:55:37;29.60;74.00
42085;DHT22;27746;52.228;20.890;2022-07-04T12:58:07;29.50;73.70
42085;DHT22;27746;52.228;20.890;2022-07-04T13:00:33;29.60;73.50
42085;DHT22;27746;52.228;20.890;2022-07-04T13:03:00;29.60;72.40
42085;DHT22;27746;52.228;20.890;2022-07-04T13:05:28;29.60;72.00
42085;DHT22;27746;52.228;20.890;2022-07-04T13:07:54;29.60;72.70
42085;DHT22;27746;52.228;20.890;2022-07-04T13:10:21;29.70;72.30
42085;DHT22;27746;52.228;20.890;2022-07-04T13:12:48;29.70;72.00
42085;DHT22;27746;52.228;20.890;2022-07-04T13:15:18;29.90;72.00
42085;DHT22;27746;52.228;20.890;2022-07-04T13:17:45;30.00;72.50
42085;DHT22;27746;52.228;20.890;2022-07-04T13:20:12;30.10;71.60
42085;DHT22;27746;52.228;20.890;2022-07-04T13:22:39;30.20;71.50
42085;DHT22;27746;52.228;20.890;2022-07-04T13:25:06;30.30;72.10
42085;DHT22;27746;52.228;20.890;2022-07-04T13:27:33;30.40;71.50
42085;DHT22;27746;52.228;20.890;2022-07-04T13:29:59;30.50;69.10
42085;DHT22;27746;52.228;20.890;2022-07-04T13:32:28;30.50;67.70
42085;DHT22;27746;52.228;20.890;2022-07-04T13:34:55;30.50;68.10
42085;DHT22;27746;52.228;20.890;2022-07-04T13:37:22;30.60;67.80
42085;DHT22;27746;52.228;20.890;2022-07-04T13:39:48;30.50;67.80
42085;DHT22;27746;52.228;20.890;2022-07-04T13:42:15;30.50;68.20
42085;DHT22;27746;52.228;20.890;2022-07-04T13:45:03;30.50;67.70
42085;DHT22;27746;52.228;20.890;2022-07-04T13:47:31;30.60;68.60
42085;DHT22;27746;52.228;20.890;2022-07-04T13:49:58;30.60;68.00
42085;DHT22;27746;52.228;20.890;2022-07-04T13:52:25;30.50;68.70
42085;DHT22;27746;52.228;20.890;2022-07-04T13:54:52;30.40;68.70
42085;DHT22;27746;52.228;20.890;2022-07-04T13:57:19;30.40;68.60
42085;DHT22;27746;52.228;20.890;2022-07-04T13:59:46;30.50;69.10
42085;DHT22;27746;52.228;20.890;2022-07-04T14:02:12;30.60;69.50
42085;DHT22;27746;52.228;20.890;2022-07-04T14:04:40;30.60;70.60
42085;DHT22;27746;52.228;20.890;2022-07-04T14:07:07;30.70;70.10
42085;DHT22;27746;52.228;20.890;2022-07-04T14:09:34;30.70;69.80
42085;DHT22;27746;52.228;20.890;2022-07-04T14:12:01;30.80;70.20
42085;DHT22;27746;52.228;20.890;2022-07-04T14:14:28;30.80;69.70
42085;DHT22;27746;52.228;20.890;2022-07-04T14:16:54;30.80;70.00
42085;DHT22;27746;52.228;20.890;2022-07-04T14:19:21;30.80;69.10
42085;DHT22;27746;52.228;20.890;2022-07-04T14:21:51;30.80;68.20
42085;DHT22;27746;52.228;20.890;2022-07-04T14:24:18;30.80;68.70
42085;DHT22;27746;52.228;20.890;2022-07-04T14:26:45;30.80;69.10
42085;DHT22;27746;52.228;20.890;2022-07-04T14:29:11;30.80;69.50
42085;DHT22;27746;52.228;20.890;2022-07-04T14:31:39;30.80;68.70
42085;DHT22;27746;52.228;20.890;2022-07-04T14:34:06;30.80;69.50
42085;DHT22;27746;52.228;20.890;2022-07-04T14:36:35;30.80;69.50
42085;DHT22;27746;52.228;20.890;2022-07-04T14:39:04;30.80;69.40
42085;DHT22;27746;52.228;20.890;2022-07-04T14:41:31;30.80;69.70
42085;DHT22;27746;52.228;20.890;2022-07-04T14:43:58;30.70;68.40
42085;DHT22;27746;52.228;20.890;2022-07-04T14:46:25;30.70;68.90
42085;DHT22;27746;52.228;20.890;2022-07-04T14:48:52;30.70;68.20
42085;DHT22;27746;52.228;20.890;2022-07-04T14:51:19;30.70;68.00
42085;DHT22;27746;52.228;20.890;2022-07-04T14:53:46;30.60;66.80
42085;DHT22;27746;52.228;20.890;2022-07-04T14:56:14;30.40;66.90
42085;DHT22;27746;52.228;20.890;2022-07-04T14:58:42;30.40;67.30
42085;DHT22;27746;52.228;20.890;2022-07-04T15:01:09;30.30;67.80
42085;DHT22;27746;52.228;20.890;2022-07-04T15:03:35;30.20;67.80
42085;DHT22;27746;52.228;20.890;2022-07-04T15:06:02;30.10;68.10
42085;DHT22;27746;52.228;20.890;2022-07-04T15:08:30;30.00;69.10
42085;DHT22;27746;52.228;20.890;2022-07-04T15:10:57;29.90;69.60
42085;DHT22;27746;52.228;20.890;2022-07-04T15:13:26;29.80;70.30
42085;DHT22;27746;52.228;20.890;2022-07-04T15:15:53;29.70;70.40
42085;DHT22;27746;52.228;20.890;2022-07-04T15:18:20;29.60;71.00
42085;DHT22;27746;52.228;20.890;2022-07-04T15:20:48;29.50;71.00
42085;DHT22;27746;52.228;20.890;2022-07-04T15:23:32;29.40;70.70